Pagina principale
METAR-TAF:

METAR-TAF

Aeroporti :

Aeroporto di Ajaccio Napoleone Bonaparte

Ajaccio, Francia

latitudine: 41-55N, longitudine: 008-48E, altezza: 6 m

Osservazione

Il bollettino è stato emesso 25 minuti fa, alle 10:30 UTC
Vento 11 kt da sud
Temperature 25°C
Umidità 69%
Pressione 1024 hPa
Visibilità 10 km o più
nessuna nube inferiore a 1500 m e nessun cumulonembo

METAR: LFKJ 191030Z AUTO 19011KT CAVOK 25/19 Q1024 NOSIG

Ora: 12:55 (10:55 UTC)

Previsione

Il bollettino è stato emesso 2 ore e 55 minuti fa, alle 08:00 UTC
Previsione valida dal 19 alle 09 UTC al 20 alle 09 UTC
Vento 10 kt da sud-ovest
Visibilità 10 km o più
nessuna nube inferiore a 1500 m e nessun cumulonembo
Evoluzione graduale
dal 19 alle 19 UTC al 19 alle 21 UTC
Vento 4 kt da nord-est
Evoluzione graduale
dal 20 alle 08 UTC al 20 alle 09 UTC
Vento 10 kt da sud-ovest

TAF: LFKJ 190800Z 1909/2009 22010KT CAVOK BECMG 1919/1921 04004KT BECMG 2008/2009 23010KT

Osservazioni e previsioni meteorologiche di più di 4000 aeroporti (messaggi METAR e TAF).

Le stazioni disponibili sono rappresentate dai dischi gialli e rossi sulla carta.

Puntare il mouse per vedere il nome della stazione.

Clicca sopra per visualizzare le osservazioni e previsioni meteorologiche.

Per cambiare la mappa : fare clic sui pulsanti verdi con una croce nera per ingrandire, il pulsante verde con un trattino per diminuire, o sulla freccia verde per le mappe adiacenti.


METAR-TAF: